Aérodrome :
LOGIN :

S'inscrire | Disclaimer

   EN    FR    IT 

 










Légende :    VFR   VFR Marginal   IFR   IFR Intensif   IFR Très Intensif
Visi : 
Plafond : 
>= 8 km
>= 3000ft
5 à 8 km
1000 à 3000 ft
1500m à 5 km
500 à 1000 ft
800 à 1500m
200 à 500 ft
< 800m
< 200 ft
Symboles :   Orages  Brouillard  Fortes neiges  Fortes précipitations  Vent > 20 kt
SIGMETs :   Divers  Orages  Givrage  Turbulence  Onde Orograph.  Cendres Volcan.







- Altitude de l'aérodrome : 157 ft
- Code IATA : LIL
- Voir les cartes d'approche


LFQQ - Lille Lesquin

DERNIER METAR :
  • 211000Z AUTO 14009KT 9999 BKN022 BKN036 BKN054 18/12 Q1023 NOSIG

METARs EXPIRÉS :
  • 210930Z AUTO 13007KT 090V160 9999 SCT034 SCT041 OVC060 17/13 Q1023 NOSIG
  • 210900Z AUTO 12008KT 9999 FEW031 SCT048 OVC060 16/13 Q1023 NOSIG
  • 210830Z AUTO 14005KT 9999 BKN032 OVC044 16/14 Q1023 NOSIG
  • 210800Z AUTO 12005KT 9999 OVC033 15/13 Q1023 NOSIG
  • 210730Z AUTO 10006KT 9999 OVC033 14/13 Q1023 NOSIG

TAF TAF LFQQ
Valide du 21 à 06h jusqu'au 22 à 12h UTC


210500Z 2106/2212 13005KT 9999 BKN030
TEMPO 2116/2124 4000 -RA BKN012 BKN030
TEMPO 2200/2207 2000 BR BKN005
ATIS : +33 3 20 16 19 54
Pas de NOTAMs connus pour ce terrain.



MET'MAP, la Météo Aéronautique d'un coup d'oeil ! - Copyright ORBIFLY Décembre 2007 - Disclaimer

ORBIFLY MET'MAP TEAM :

Programmation & Développement : Alexandra Zaïnal
Conception & Développement : Baudouin d'Aumeries
Co-Programmation & Développement : Marc-Olivier Méhu
Soutien technique & logistique : Manuel Goepfert

Contact : metmap@orbifly.com




SOURCES & CREDITS :

   NOAA